sensor_id;sensor_type;location;lat;lon;timestamp;temperature;humidity
34877;DHT22;21086;44.780;17.194;2024-03-02T00:00:38;10.00;99.90
34877;DHT22;21086;44.780;17.194;2024-03-02T00:03:07;10.00;99.90
34877;DHT22;21086;44.780;17.194;2024-03-02T00:05:36;10.00;99.90
34877;DHT22;21086;44.780;17.194;2024-03-02T00:08:04;10.00;99.90
34877;DHT22;21086;44.780;17.194;2024-03-02T00:10:37;9.90;99.90
34877;DHT22;21086;44.780;17.194;2024-03-02T00:13:08;9.80;99.90
34877;DHT22;21086;44.780;17.194;2024-03-02T00:15:48;9.90;99.90
34877;DHT22;21086;44.780;17.194;2024-03-02T00:18:30;9.80;99.90
34877;DHT22;21086;44.780;17.194;2024-03-02T00:20:58;9.70;99.90
34877;DHT22;21086;44.780;17.194;2024-03-02T00:23:32;9.70;99.90
34877;DHT22;21086;44.780;17.194;2024-03-02T00:26:00;9.70;99.90
34877;DHT22;21086;44.780;17.194;2024-03-02T00:28:35;9.70;99.90
34877;DHT22;21086;44.780;17.194;2024-03-02T00:31:07;9.80;99.90
34877;DHT22;21086;44.780;17.194;2024-03-02T00:33:45;9.80;99.90
34877;DHT22;21086;44.780;17.194;2024-03-02T00:36:15;9.70;99.90
34877;DHT22;21086;44.780;17.194;2024-03-02T00:38:48;9.60;99.90
34877;DHT22;21086;44.780;17.194;2024-03-02T00:41:34;9.70;99.90
34877;DHT22;21086;44.780;17.194;2024-03-02T00:44:04;9.60;99.90
34877;DHT22;21086;44.780;17.194;2024-03-02T00:46:40;9.60;99.90
34877;DHT22;21086;44.780;17.194;2024-03-02T00:49:23;9.50;99.90
34877;DHT22;21086;44.780;17.194;2024-03-02T00:51:52;9.50;99.90
34877;DHT22;21086;44.780;17.194;2024-03-02T00:54:26;9.40;99.90
34877;DHT22;21086;44.780;17.194;2024-03-02T00:56:56;9.50;99.90
34877;DHT22;21086;44.780;17.194;2024-03-02T00:59:23;9.40;99.90
34877;DHT22;21086;44.780;17.194;2024-03-02T01:01:51;9.30;99.90
34877;DHT22;21086;44.780;17.194;2024-03-02T01:04:18;9.30;99.90
34877;DHT22;21086;44.780;17.194;2024-03-02T01:06:45;9.20;99.90
34877;DHT22;21086;44.780;17.194;2024-03-02T01:09:13;9.20;99.90
34877;DHT22;21086;44.780;17.194;2024-03-02T01:11:40;9.20;99.90
34877;DHT22;21086;44.780;17.194;2024-03-02T01:14:07;9.10;99.90
34877;DHT22;21086;44.780;17.194;2024-03-02T01:16:34;9.10;99.90
34877;DHT22;21086;44.780;17.194;2024-03-02T01:19:01;9.10;99.90
34877;DHT22;21086;44.780;17.194;2024-03-02T01:21:28;9.10;99.90
34877;DHT22;21086;44.780;17.194;2024-03-02T01:23:55;9.10;99.90
34877;DHT22;21086;44.780;17.194;2024-03-02T01:26:22;9.10;99.90
34877;DHT22;21086;44.780;17.194;2024-03-02T01:28:49;9.10;99.90
34877;DHT22;21086;44.780;17.194;2024-03-02T01:31:16;9.00;99.90
34877;DHT22;21086;44.780;17.194;2024-03-02T01:33:43;9.00;99.90
34877;DHT22;21086;44.780;17.194;2024-03-02T01:36:10;9.00;99.90
34877;DHT22;21086;44.780;17.194;2024-03-02T01:38:37;8.90;99.90
34877;DHT22;21086;44.780;17.194;2024-03-02T01:41:05;8.90;99.90
34877;DHT22;21086;44.780;17.194;2024-03-02T01:43:32;8.90;99.90
34877;DHT22;21086;44.780;17.194;2024-03-02T01:45:59;8.90;99.90
34877;DHT22;21086;44.780;17.194;2024-03-02T01:48:26;9.00;99.90
34877;DHT22;21086;44.780;17.194;2024-03-02T01:50:53;8.90;99.90
34877;DHT22;21086;44.780;17.194;2024-03-02T01:53:20;8.90;99.90
34877;DHT22;21086;44.780;17.194;2024-03-02T01:55:47;8.80;99.90
34877;DHT22;21086;44.780;17.194;2024-03-02T01:58:14;8.80;99.90
34877;DHT22;21086;44.780;17.194;2024-03-02T02:00:41;8.80;99.90
34877;DHT22;21086;44.780;17.194;2024-03-02T02:03:08;8.80;99.90
34877;DHT22;21086;44.780;17.194;2024-03-02T02:05:35;8.70;99.90
34877;DHT22;21086;44.780;17.194;2024-03-02T02:08:02;8.80;99.90
34877;DHT22;21086;44.780;17.194;2024-03-02T02:10:29;8.70;99.90
34877;DHT22;21086;44.780;17.194;2024-03-02T02:12:56;8.70;99.90
34877;DHT22;21086;44.780;17.194;2024-03-02T02:15:30;8.70;99.90
34877;DHT22;21086;44.780;17.194;2024-03-02T02:17:58;8.60;99.90
34877;DHT22;21086;44.780;17.194;2024-03-02T02:20:26;8.60;99.90
34877;DHT22;21086;44.780;17.194;2024-03-02T02:23:03;8.60;99.90
34877;DHT22;21086;44.780;17.194;2024-03-02T02:25:32;8.50;99.90
34877;DHT22;21086;44.780;17.194;2024-03-02T02:27:59;8.50;99.90
34877;DHT22;21086;44.780;17.194;2024-03-02T02:30:28;8.50;99.90
34877;DHT22;21086;44.780;17.194;2024-03-02T02:32:56;8.40;99.90
34877;DHT22;21086;44.780;17.194;2024-03-02T02:35:23;8.40;99.90
34877;DHT22;21086;44.780;17.194;2024-03-02T02:37:55;8.40;99.90
34877;DHT22;21086;44.780;17.194;2024-03-02T02:40:22;8.40;99.90
34877;DHT22;21086;44.780;17.194;2024-03-02T02:42:50;8.40;99.90
34877;DHT22;21086;44.780;17.194;2024-03-02T02:45:20;8.40;99.90
34877;DHT22;21086;44.780;17.194;2024-03-02T02:47:47;8.40;99.90
34877;DHT22;21086;44.780;17.194;2024-03-02T02:50:14;8.40;99.90
34877;DHT22;21086;44.780;17.194;2024-03-02T02:52:42;8.40;99.90
34877;DHT22;21086;44.780;17.194;2024-03-02T02:55:11;8.30;99.90
34877;DHT22;21086;44.780;17.194;2024-03-02T02:57:40;8.20;99.90
34877;DHT22;21086;44.780;17.194;2024-03-02T03:00:13;8.20;99.90
34877;DHT22;21086;44.780;17.194;2024-03-02T03:02:45;8.10;99.90
34877;DHT22;21086;44.780;17.194;2024-03-02T03:05:14;8.10;99.90
34877;DHT22;21086;44.780;17.194;2024-03-02T03:07:42;8.00;99.90
34877;DHT22;21086;44.780;17.194;2024-03-02T03:10:11;8.00;99.90
34877;DHT22;21086;44.780;17.194;2024-03-02T03:12:38;8.00;99.90
34877;DHT22;21086;44.780;17.194;2024-03-02T03:15:08;7.90;99.90
34877;DHT22;21086;44.780;17.194;2024-03-02T03:17:36;8.00;99.90
34877;DHT22;21086;44.780;17.194;2024-03-02T03:20:04;8.00;99.90
34877;DHT22;21086;44.780;17.194;2024-03-02T03:22:32;7.90;99.90
34877;DHT22;21086;44.780;17.194;2024-03-02T03:24:59;7.90;99.90
34877;DHT22;21086;44.780;17.194;2024-03-02T03:27:27;7.90;99.90
34877;DHT22;21086;44.780;17.194;2024-03-02T03:29:54;7.80;99.90
34877;DHT22;21086;44.780;17.194;2024-03-02T03:32:22;7.80;99.90
34877;DHT22;21086;44.780;17.194;2024-03-02T03:34:49;7.80;99.90
34877;DHT22;21086;44.780;17.194;2024-03-02T03:37:16;7.80;99.90
34877;DHT22;21086;44.780;17.194;2024-03-02T03:39:43;7.70;99.90
34877;DHT22;21086;44.780;17.194;2024-03-02T03:42:10;7.70;99.90
34877;DHT22;21086;44.780;17.194;2024-03-02T03:44:37;7.70;99.90
34877;DHT22;21086;44.780;17.194;2024-03-02T03:47:06;7.70;99.90
34877;DHT22;21086;44.780;17.194;2024-03-02T03:49:33;7.70;99.90
34877;DHT22;21086;44.780;17.194;2024-03-02T03:52:00;7.80;99.90
34877;DHT22;21086;44.780;17.194;2024-03-02T03:54:27;7.80;99.90
34877;DHT22;21086;44.780;17.194;2024-03-02T03:56:55;7.80;99.90
34877;DHT22;21086;44.780;17.194;2024-03-02T03:59:23;7.70;99.90
34877;DHT22;21086;44.780;17.194;2024-03-02T04:01:50;7.70;99.90
34877;DHT22;21086;44.780;17.194;2024-03-02T04:04:17;7.60;99.90
34877;DHT22;21086;44.780;17.194;2024-03-02T04:06:44;7.60;99.90
34877;DHT22;21086;44.780;17.194;2024-03-02T04:09:11;7.60;99.90
34877;DHT22;21086;44.780;17.194;2024-03-02T04:11:38;7.60;99.90
34877;DHT22;21086;44.780;17.194;2024-03-02T04:14:05;7.60;99.90
34877;DHT22;21086;44.780;17.194;2024-03-02T04:16:33;7.60;99.90
34877;DHT22;21086;44.780;17.194;2024-03-02T04:19:00;7.50;99.90
34877;DHT22;21086;44.780;17.194;2024-03-02T04:21:27;7.50;99.90
34877;DHT22;21086;44.780;17.194;2024-03-02T04:23:54;7.40;99.90
34877;DHT22;21086;44.780;17.194;2024-03-02T04:26:28;7.40;99.90
34877;DHT22;21086;44.780;17.194;2024-03-02T04:28:55;7.40;99.90
34877;DHT22;21086;44.780;17.194;2024-03-02T04:31:22;7.40;99.90
34877;DHT22;21086;44.780;17.194;2024-03-02T04:33:49;7.40;99.90
34877;DHT22;21086;44.780;17.194;2024-03-02T04:36:16;7.30;99.90
34877;DHT22;21086;44.780;17.194;2024-03-02T04:38:43;7.30;99.90
34877;DHT22;21086;44.780;17.194;2024-03-02T04:41:10;7.20;99.90
34877;DHT22;21086;44.780;17.194;2024-03-02T04:43:37;7.20;99.90
34877;DHT22;21086;44.780;17.194;2024-03-02T04:46:05;7.20;99.90
34877;DHT22;21086;44.780;17.194;2024-03-02T04:48:34;7.20;99.90
34877;DHT22;21086;44.780;17.194;2024-03-02T04:51:01;7.10;99.90
34877;DHT22;21086;44.780;17.194;2024-03-02T04:53:28;7.10;99.90
34877;DHT22;21086;44.780;17.194;2024-03-02T04:55:55;7.10;99.90
34877;DHT22;21086;44.780;17.194;2024-03-02T04:58:45;7.10;99.90
34877;DHT22;21086;44.780;17.194;2024-03-02T05:01:11;7.10;99.90
34877;DHT22;21086;44.780;17.194;2024-03-02T05:03:39;7.10;99.90
34877;DHT22;21086;44.780;17.194;2024-03-02T05:06:06;7.10;99.90
34877;DHT22;21086;44.780;17.194;2024-03-02T05:08:33;7.10;99.90
34877;DHT22;21086;44.780;17.194;2024-03-02T05:11:00;7.00;99.90
34877;DHT22;21086;44.780;17.194;2024-03-02T05:13:47;7.00;99.90
34877;DHT22;21086;44.780;17.194;2024-03-02T05:16:14;7.00;99.90
34877;DHT22;21086;44.780;17.194;2024-03-02T05:18:41;7.00;99.90
34877;DHT22;21086;44.780;17.194;2024-03-02T05:21:08;7.00;99.90
34877;DHT22;21086;44.780;17.194;2024-03-02T05:23:35;6.90;99.90
34877;DHT22;21086;44.780;17.194;2024-03-02T05:26:02;6.90;99.90
34877;DHT22;21086;44.780;17.194;2024-03-02T05:28:29;6.80;99.90
34877;DHT22;21086;44.780;17.194;2024-03-02T05:30:56;6.80;99.90
34877;DHT22;21086;44.780;17.194;2024-03-02T05:33:23;6.90;99.90
34877;DHT22;21086;44.780;17.194;2024-03-02T05:35:52;6.80;99.90
34877;DHT22;21086;44.780;17.194;2024-03-02T05:38:20;6.90;99.90
34877;DHT22;21086;44.780;17.194;2024-03-02T05:40:48;6.80;99.90
34877;DHT22;21086;44.780;17.194;2024-03-02T05:43:15;6.80;99.90
34877;DHT22;21086;44.780;17.194;2024-03-02T05:45:42;6.80;99.90
34877;DHT22;21086;44.780;17.194;2024-03-02T05:48:09;6.80;99.90
34877;DHT22;21086;44.780;17.194;2024-03-02T05:50:36;6.90;99.90
34877;DHT22;21086;44.780;17.194;2024-03-02T05:53:03;6.90;99.90
34877;DHT22;21086;44.780;17.194;2024-03-02T05:55:30;6.90;99.90
34877;DHT22;21086;44.780;17.194;2024-03-02T05:57:57;7.00;99.90
34877;DHT22;21086;44.780;17.194;2024-03-02T06:00:25;7.00;99.90
34877;DHT22;21086;44.780;17.194;2024-03-02T06:02:52;7.00;99.90
34877;DHT22;21086;44.780;17.194;2024-03-02T06:05:19;7.00;99.90
34877;DHT22;21086;44.780;17.194;2024-03-02T06:07:46;7.00;99.90
34877;DHT22;21086;44.780;17.194;2024-03-02T06:10:13;7.10;99.90
34877;DHT22;21086;44.780;17.194;2024-03-02T06:12:41;7.10;99.90
34877;DHT22;21086;44.780;17.194;2024-03-02T06:15:09;7.20;99.90
34877;DHT22;21086;44.780;17.194;2024-03-02T06:17:36;7.30;99.90
34877;DHT22;21086;44.780;17.194;2024-03-02T06:20:04;7.40;99.90
34877;DHT22;21086;44.780;17.194;2024-03-02T06:22:31;7.60;99.90
34877;DHT22;21086;44.780;17.194;2024-03-02T06:24:58;7.60;99.90
34877;DHT22;21086;44.780;17.194;2024-03-02T06:27:25;7.70;99.90
34877;DHT22;21086;44.780;17.194;2024-03-02T06:29:52;10.90;99.90
34877;DHT22;21086;44.780;17.194;2024-03-02T06:32:21;7.90;99.90
34877;DHT22;21086;44.780;17.194;2024-03-02T06:34:49;8.00;99.90
34877;DHT22;21086;44.780;17.194;2024-03-02T06:37:16;8.10;99.90
34877;DHT22;21086;44.780;17.194;2024-03-02T06:39:43;8.20;99.90
34877;DHT22;21086;44.780;17.194;2024-03-02T06:42:10;8.40;99.90
34877;DHT22;21086;44.780;17.194;2024-03-02T06:44:37;8.50;99.90
34877;DHT22;21086;44.780;17.194;2024-03-02T06:47:05;8.60;99.90
34877;DHT22;21086;44.780;17.194;2024-03-02T06:49:32;8.80;99.90
34877;DHT22;21086;44.780;17.194;2024-03-02T06:51:58;8.90;99.90
34877;DHT22;21086;44.780;17.194;2024-03-02T06:54:25;9.00;99.90
34877;DHT22;21086;44.780;17.194;2024-03-02T06:56:52;9.10;99.90
34877;DHT22;21086;44.780;17.194;2024-03-02T06:59:19;9.20;99.90
34877;DHT22;21086;44.780;17.194;2024-03-02T07:01:46;9.30;99.90
34877;DHT22;21086;44.780;17.194;2024-03-02T07:04:13;9.50;99.90
34877;DHT22;21086;44.780;17.194;2024-03-02T07:06:40;9.60;99.90
34877;DHT22;21086;44.780;17.194;2024-03-02T07:09:07;9.80;99.90
34877;DHT22;21086;44.780;17.194;2024-03-02T07:11:37;9.90;99.90
34877;DHT22;21086;44.780;17.194;2024-03-02T07:14:04;10.10;99.90
34877;DHT22;21086;44.780;17.194;2024-03-02T07:16:31;10.20;99.90
34877;DHT22;21086;44.780;17.194;2024-03-02T07:19:00;10.40;99.90
34877;DHT22;21086;44.780;17.194;2024-03-02T07:21:28;10.60;99.90
34877;DHT22;21086;44.780;17.194;2024-03-02T07:23:55;10.60;99.90
34877;DHT22;21086;44.780;17.194;2024-03-02T07:26:22;10.80;99.90
34877;DHT22;21086;44.780;17.194;2024-03-02T07:28:52;11.00;99.90
34877;DHT22;21086;44.780;17.194;2024-03-02T07:31:19;11.20;99.90
34877;DHT22;21086;44.780;17.194;2024-03-02T07:33:46;11.30;99.90
34877;DHT22;21086;44.780;17.194;2024-03-02T07:36:14;11.40;99.90
34877;DHT22;21086;44.780;17.194;2024-03-02T07:38:42;11.60;99.90
34877;DHT22;21086;44.780;17.194;2024-03-02T07:41:12;11.80;99.90
34877;DHT22;21086;44.780;17.194;2024-03-02T07:43:39;12.00;99.90
34877;DHT22;21086;44.780;17.194;2024-03-02T07:46:06;12.10;99.90
34877;DHT22;21086;44.780;17.194;2024-03-02T07:48:34;12.30;99.90
34877;DHT22;21086;44.780;17.194;2024-03-02T07:51:01;12.60;99.90
34877;DHT22;21086;44.780;17.194;2024-03-02T07:53:29;12.70;99.90
34877;DHT22;21086;44.780;17.194;2024-03-02T07:55:56;13.00;99.90
34877;DHT22;21086;44.780;17.194;2024-03-02T07:58:29;13.20;99.90
34877;DHT22;21086;44.780;17.194;2024-03-02T08:00:56;13.50;99.90
34877;DHT22;21086;44.780;17.194;2024-03-02T08:03:24;13.70;99.90
34877;DHT22;21086;44.780;17.194;2024-03-02T08:05:51;13.80;99.90
34877;DHT22;21086;44.780;17.194;2024-03-02T08:08:19;13.90;99.90
34877;DHT22;21086;44.780;17.194;2024-03-02T08:10:46;14.10;99.90
34877;DHT22;21086;44.780;17.194;2024-03-02T08:13:13;14.20;99.90
34877;DHT22;21086;44.780;17.194;2024-03-02T08:15:40;14.50;99.90
34877;DHT22;21086;44.780;17.194;2024-03-02T08:18:08;14.70;99.90
34877;DHT22;21086;44.780;17.194;2024-03-02T08:20:35;14.90;99.90
34877;DHT22;21086;44.780;17.194;2024-03-02T08:23:02;15.10;99.90
34877;DHT22;21086;44.780;17.194;2024-03-02T08:25:29;15.40;99.90
34877;DHT22;21086;44.780;17.194;2024-03-02T08:27:56;15.50;99.90
34877;DHT22;21086;44.780;17.194;2024-03-02T08:30:24;15.70;99.90
34877;DHT22;21086;44.780;17.194;2024-03-02T08:32:51;15.90;99.90
34877;DHT22;21086;44.780;17.194;2024-03-02T08:35:18;16.00;99.90
34877;DHT22;21086;44.780;17.194;2024-03-02T08:37:45;16.10;99.90
34877;DHT22;21086;44.780;17.194;2024-03-02T08:40:12;16.20;99.90
34877;DHT22;21086;44.780;17.194;2024-03-02T08:42:43;16.20;99.90
34877;DHT22;21086;44.780;17.194;2024-03-02T08:45:10;16.20;99.90
34877;DHT22;21086;44.780;17.194;2024-03-02T08:47:38;16.30;99.90
34877;DHT22;21086;44.780;17.194;2024-03-02T08:50:05;16.30;99.90
34877;DHT22;21086;44.780;17.194;2024-03-02T08:52:33;16.50;99.90
34877;DHT22;21086;44.780;17.194;2024-03-02T08:55:00;16.70;99.90
34877;DHT22;21086;44.780;17.194;2024-03-02T08:57:27;16.80;99.90
34877;DHT22;21086;44.780;17.194;2024-03-02T08:59:54;16.80;99.90
34877;DHT22;21086;44.780;17.194;2024-03-02T09:02:21;16.90;99.90
34877;DHT22;21086;44.780;17.194;2024-03-02T09:04:49;17.10;99.90
34877;DHT22;21086;44.780;17.194;2024-03-02T09:07:16;17.40;99.90
34877;DHT22;21086;44.780;17.194;2024-03-02T09:09:43;17.40;99.90
34877;DHT22;21086;44.780;17.194;2024-03-02T09:12:10;17.60;99.90
34877;DHT22;21086;44.780;17.194;2024-03-02T09:14:38;17.80;99.90
34877;DHT22;21086;44.780;17.194;2024-03-02T09:17:05;18.00;99.90
34877;DHT22;21086;44.780;17.194;2024-03-02T09:19:32;18.00;99.90
34877;DHT22;21086;44.780;17.194;2024-03-02T09:21:59;18.00;99.90
34877;DHT22;21086;44.780;17.194;2024-03-02T09:24:26;18.00;99.90
34877;DHT22;21086;44.780;17.194;2024-03-02T09:26:53;18.10;99.90
34877;DHT22;21086;44.780;17.194;2024-03-02T09:29:21;18.10;99.90
34877;DHT22;21086;44.780;17.194;2024-03-02T09:31:48;18.20;99.90
34877;DHT22;21086;44.780;17.194;2024-03-02T09:34:16;18.30;99.90
34877;DHT22;21086;44.780;17.194;2024-03-02T09:36:44;18.30;99.90
34877;DHT22;21086;44.780;17.194;2024-03-02T09:39:11;18.20;99.90
34877;DHT22;21086;44.780;17.194;2024-03-02T09:41:38;18.10;99.90
34877;DHT22;21086;44.780;17.194;2024-03-02T09:44:06;18.20;99.90
34877;DHT22;21086;44.780;17.194;2024-03-02T09:46:33;18.40;99.90
34877;DHT22;21086;44.780;17.194;2024-03-02T09:49:00;18.60;99.90
34877;DHT22;21086;44.780;17.194;2024-03-02T09:51:27;18.70;99.90
34877;DHT22;21086;44.780;17.194;2024-03-02T09:53:55;18.80;99.90
34877;DHT22;21086;44.780;17.194;2024-03-02T09:56:35;18.90;99.90
34877;DHT22;21086;44.780;17.194;2024-03-02T09:59:02;19.10;99.90
34877;DHT22;21086;44.780;17.194;2024-03-02T10:01:29;19.20;99.90
34877;DHT22;21086;44.780;17.194;2024-03-02T10:03:59;19.40;99.90
34877;DHT22;21086;44.780;17.194;2024-03-02T10:06:28;19.70;99.90
34877;DHT22;21086;44.780;17.194;2024-03-02T10:08:56;19.80;99.90
34877;DHT22;21086;44.780;17.194;2024-03-02T10:11:34;20.10;99.90
34877;DHT22;21086;44.780;17.194;2024-03-02T10:14:10;20.90;99.90
34877;DHT22;21086;44.780;17.194;2024-03-02T10:16:42;21.10;99.90
34877;DHT22;21086;44.780;17.194;2024-03-02T10:19:20;21.10;99.90
34877;DHT22;21086;44.780;17.194;2024-03-02T10:21:52;21.70;99.90
34877;DHT22;21086;44.780;17.194;2024-03-02T10:24:20;22.20;99.90
34877;DHT22;21086;44.780;17.194;2024-03-02T10:26:48;22.90;99.90
34877;DHT22;21086;44.780;17.194;2024-03-02T10:29:16;23.80;99.90
34877;DHT22;21086;44.780;17.194;2024-03-02T10:31:44;24.20;99.90
34877;DHT22;21086;44.780;17.194;2024-03-02T10:34:13;24.30;99.90
34877;DHT22;21086;44.780;17.194;2024-03-02T10:36:42;24.00;99.90
34877;DHT22;21086;44.780;17.194;2024-03-02T10:39:09;23.70;99.90
34877;DHT22;21086;44.780;17.194;2024-03-02T10:41:37;23.20;99.90
34877;DHT22;21086;44.780;17.194;2024-03-02T10:44:06;22.80;99.90
34877;DHT22;21086;44.780;17.194;2024-03-02T10:46:35;22.30;99.90
34877;DHT22;21086;44.780;17.194;2024-03-02T10:49:05;22.00;99.90
34877;DHT22;21086;44.780;17.194;2024-03-02T10:51:35;21.80;99.90
34877;DHT22;21086;44.780;17.194;2024-03-02T10:54:04;21.70;99.90
34877;DHT22;21086;44.780;17.194;2024-03-02T10:56:39;21.60;99.90
34877;DHT22;21086;44.780;17.194;2024-03-02T10:59:35;21.50;99.90
34877;DHT22;21086;44.780;17.194;2024-03-02T11:02:05;21.50;99.90
34877;DHT22;21086;44.780;17.194;2024-03-02T11:04:35;21.50;99.90
34877;DHT22;21086;44.780;17.194;2024-03-02T11:07:07;21.60;99.90
34877;DHT22;21086;44.780;17.194;2024-03-02T11:09:51;21.50;99.90
34877;DHT22;21086;44.780;17.194;2024-03-02T11:12:23;21.40;99.90
34877;DHT22;21086;44.780;17.194;2024-03-02T11:14:54;21.20;99.90
34877;DHT22;21086;44.780;17.194;2024-03-02T11:17:23;21.20;99.90
34877;DHT22;21086;44.780;17.194;2024-03-02T11:19:52;21.10;99.90
34877;DHT22;21086;44.780;17.194;2024-03-02T11:22:19;21.00;99.90
34877;DHT22;21086;44.780;17.194;2024-03-02T11:24:51;20.90;99.90
34877;DHT22;21086;44.780;17.194;2024-03-02T11:33:05;22.00;99.90
34877;DHT22;21086;44.780;17.194;2024-03-02T11:35:42;22.70;99.90
34877;DHT22;21086;44.780;17.194;2024-03-02T11:38:10;23.60;99.90
34877;DHT22;21086;44.780;17.194;2024-03-02T11:40:39;24.10;99.90
34877;DHT22;21086;44.780;17.194;2024-03-02T11:43:09;24.60;99.90
34877;DHT22;21086;44.780;17.194;2024-03-02T11:45:36;25.00;99.90
34877;DHT22;21086;44.780;17.194;2024-03-02T11:48:08;25.60;99.90
34877;DHT22;21086;44.780;17.194;2024-03-02T11:50:47;25.50;99.90
34877;DHT22;21086;44.780;17.194;2024-03-02T11:53:14;25.30;99.90
34877;DHT22;21086;44.780;17.194;2024-03-02T11:55:42;25.10;99.90
34877;DHT22;21086;44.780;17.194;2024-03-02T11:58:15;24.90;99.90
34877;DHT22;21086;44.780;17.194;2024-03-02T12:00:51;25.30;99.90
34877;DHT22;21086;44.780;17.194;2024-03-02T12:03:21;25.80;99.90
34877;DHT22;21086;44.780;17.194;2024-03-02T12:05:50;26.80;99.90
34877;DHT22;21086;44.780;17.194;2024-03-02T12:08:17;28.00;99.90
34877;DHT22;21086;44.780;17.194;2024-03-02T12:10:57;26.50;99.90
34877;DHT22;21086;44.780;17.194;2024-03-02T12:13:24;25.90;99.90
34877;DHT22;21086;44.780;17.194;2024-03-02T12:15:54;25.40;99.90
34877;DHT22;21086;44.780;17.194;2024-03-02T12:18:24;25.30;99.90
34877;DHT22;21086;44.780;17.194;2024-03-02T12:20:52;25.60;99.90
34877;DHT22;21086;44.780;17.194;2024-03-02T12:23:23;26.70;99.90
34877;DHT22;21086;44.780;17.194;2024-03-02T12:25:50;26.90;99.90
34877;DHT22;21086;44.780;17.194;2024-03-02T12:28:17;26.80;99.90
34877;DHT22;21086;44.780;17.194;2024-03-02T12:30:46;26.30;99.90
34877;DHT22;21086;44.780;17.194;2024-03-02T12:33:14;25.80;99.90
34877;DHT22;21086;44.780;17.194;2024-03-02T12:35:42;26.20;99.90
34877;DHT22;21086;44.780;17.194;2024-03-02T12:38:09;27.90;99.90
34877;DHT22;21086;44.780;17.194;2024-03-02T12:40:38;28.40;99.90
34877;DHT22;21086;44.780;17.194;2024-03-02T12:43:06;28.00;99.90
34877;DHT22;21086;44.780;17.194;2024-03-02T12:45:34;27.20;99.90
34877;DHT22;21086;44.780;17.194;2024-03-02T12:48:03;26.40;99.90
34877;DHT22;21086;44.780;17.194;2024-03-02T12:50:31;25.80;99.90
34877;DHT22;21086;44.780;17.194;2024-03-02T12:52:58;25.40;99.90
34877;DHT22;21086;44.780;17.194;2024-03-02T12:55:26;25.00;99.90
34877;DHT22;21086;44.780;17.194;2024-03-02T12:57:53;24.70;99.90
34877;DHT22;21086;44.780;17.194;2024-03-02T13:00:21;24.30;99.90
34877;DHT22;21086;44.780;17.194;2024-03-02T13:02:50;23.80;99.90
34877;DHT22;21086;44.780;17.194;2024-03-02T13:05:19;22.80;99.90
34877;DHT22;21086;44.780;17.194;2024-03-02T13:07:50;22.30;99.90
34877;DHT22;21086;44.780;17.194;2024-03-02T13:10:17;22.10;99.90
34877;DHT22;21086;44.780;17.194;2024-03-02T13:12:45;21.70;99.90
34877;DHT22;21086;44.780;17.194;2024-03-02T13:15:13;21.70;99.90
34877;DHT22;21086;44.780;17.194;2024-03-02T13:17:45;21.50;99.90
34877;DHT22;21086;44.780;17.194;2024-03-02T13:20:15;21.30;99.90
34877;DHT22;21086;44.780;17.194;2024-03-02T13:22:44;21.00;99.90
34877;DHT22;21086;44.780;17.194;2024-03-02T13:25:11;20.80;99.90
34877;DHT22;21086;44.780;17.194;2024-03-02T13:27:39;20.50;99.90
34877;DHT22;21086;44.780;17.194;2024-03-02T13:30:06;20.20;99.90
34877;DHT22;21086;44.780;17.194;2024-03-02T13:32:36;19.80;99.90
34877;DHT22;21086;44.780;17.194;2024-03-02T13:35:03;19.00;99.90
34877;DHT22;21086;44.780;17.194;2024-03-02T13:37:30;17.30;99.90
34877;DHT22;21086;44.780;17.194;2024-03-02T13:39:58;17.20;99.90
34877;DHT22;21086;44.780;17.194;2024-03-02T13:42:25;16.30;99.90
34877;DHT22;21086;44.780;17.194;2024-03-02T13:44:52;15.60;99.90
34877;DHT22;21086;44.780;17.194;2024-03-02T13:47:19;15.20;99.90
34877;DHT22;21086;44.780;17.194;2024-03-02T13:49:48;14.90;99.90
34877;DHT22;21086;44.780;17.194;2024-03-02T13:52:16;14.60;99.90
34877;DHT22;21086;44.780;17.194;2024-03-02T13:54:47;14.50;99.90
34877;DHT22;21086;44.780;17.194;2024-03-02T13:57:15;14.50;99.90
34877;DHT22;21086;44.780;17.194;2024-03-02T13:59:44;14.50;99.90
34877;DHT22;21086;44.780;17.194;2024-03-02T14:02:12;14.60;99.90
34877;DHT22;21086;44.780;17.194;2024-03-02T14:04:39;14.90;99.90
34877;DHT22;21086;44.780;17.194;2024-03-02T14:07:07;15.30;99.90
34877;DHT22;21086;44.780;17.194;2024-03-02T14:09:35;15.60;99.90
34877;DHT22;21086;44.780;17.194;2024-03-02T14:12:02;16.00;99.90
34877;DHT22;21086;44.780;17.194;2024-03-02T14:14:30;16.40;99.90
34877;DHT22;21086;44.780;17.194;2024-03-02T14:16:57;16.90;99.90
34877;DHT22;21086;44.780;17.194;2024-03-02T14:19:30;17.30;99.90
34877;DHT22;21086;44.780;17.194;2024-03-02T14:21:58;17.50;99.90
34877;DHT22;21086;44.780;17.194;2024-03-02T14:24:26;17.70;99.90
34877;DHT22;21086;44.780;17.194;2024-03-02T14:26:56;17.80;99.90
34877;DHT22;21086;44.780;17.194;2024-03-02T14:29:45;17.90;99.90
34877;DHT22;21086;44.780;17.194;2024-03-02T14:32:12;18.10;99.90
34877;DHT22;21086;44.780;17.194;2024-03-02T14:34:39;18.30;99.90
34877;DHT22;21086;44.780;17.194;2024-03-02T14:37:06;18.30;99.90
34877;DHT22;21086;44.780;17.194;2024-03-02T14:39:34;18.30;99.90
34877;DHT22;21086;44.780;17.194;2024-03-02T14:42:02;18.40;99.90
34877;DHT22;21086;44.780;17.194;2024-03-02T14:44:29;18.40;99.90
34877;DHT22;21086;44.780;17.194;2024-03-02T14:46:56;18.30;99.90
34877;DHT22;21086;44.780;17.194;2024-03-02T14:49:26;18.10;99.90
34877;DHT22;21086;44.780;17.194;2024-03-02T14:51:53;17.90;99.90
34877;DHT22;21086;44.780;17.194;2024-03-02T14:54:21;17.70;99.90
34877;DHT22;21086;44.780;17.194;2024-03-02T14:56:48;17.50;99.90
34877;DHT22;21086;44.780;17.194;2024-03-02T14:59:16;17.30;99.90
34877;DHT22;21086;44.780;17.194;2024-03-02T15:01:43;17.20;99.90
34877;DHT22;21086;44.780;17.194;2024-03-02T15:04:11;17.10;99.90
34877;DHT22;21086;44.780;17.194;2024-03-02T15:06:38;16.90;99.90
34877;DHT22;21086;44.780;17.194;2024-03-02T15:09:05;16.30;99.90
34877;DHT22;21086;44.780;17.194;2024-03-02T15:11:32;16.30;99.90
34877;DHT22;21086;44.780;17.194;2024-03-02T15:13:59;16.30;99.90
34877;DHT22;21086;44.780;17.194;2024-03-02T15:16:26;15.90;99.90
34877;DHT22;21086;44.780;17.194;2024-03-02T15:18:55;15.60;99.90
34877;DHT22;21086;44.780;17.194;2024-03-02T15:21:22;15.50;99.90
34877;DHT22;21086;44.780;17.194;2024-03-02T15:23:49;15.90;99.90
34877;DHT22;21086;44.780;17.194;2024-03-02T15:26:16;16.20;99.90
34877;DHT22;21086;44.780;17.194;2024-03-02T15:28:43;16.60;99.90
34877;DHT22;21086;44.780;17.194;2024-03-02T15:31:10;16.80;99.90
34877;DHT22;21086;44.780;17.194;2024-03-02T15:33:37;16.90;99.90
34877;DHT22;21086;44.780;17.194;2024-03-02T15:36:05;16.90;99.90